sensor_id;sensor_type;location;lat;lon;timestamp;P1;durP1;ratioP1;P2;durP2;ratioP2
32032;SDS011;31720;52.638;9.216;2023-03-23T00:01:42;5.25;;;2.30;;
32032;SDS011;31720;52.638;9.216;2023-03-23T00:04:43;8.02;;;2.28;;
32032;SDS011;31720;52.638;9.216;2023-03-23T00:07:45;4.68;;;2.22;;
32032;SDS011;31720;52.638;9.216;2023-03-23T00:10:49;7.80;;;2.50;;
32032;SDS011;31720;52.638;9.216;2023-03-23T00:13:52;6.65;;;2.50;;
32032;SDS011;31720;52.638;9.216;2023-03-23T00:16:54;9.43;;;3.13;;
32032;SDS011;31720;52.638;9.216;2023-03-23T00:19:55;5.78;;;3.15;;
32032;SDS011;31720;52.638;9.216;2023-03-23T00:22:57;6.53;;;2.85;;
32032;SDS011;31720;52.638;9.216;2023-03-23T00:26:01;4.68;;;2.45;;
32032;SDS011;31720;52.638;9.216;2023-03-23T00:29:03;3.95;;;2.95;;
32032;SDS011;31720;52.638;9.216;2023-03-23T00:32:04;4.72;;;2.90;;
32032;SDS011;31720;52.638;9.216;2023-03-23T00:35:07;5.93;;;2.83;;
32032;SDS011;31720;52.638;9.216;2023-03-23T00:38:08;6.25;;;2.72;;
32032;SDS011;31720;52.638;9.216;2023-03-23T00:41:12;7.70;;;2.78;;
32032;SDS011;31720;52.638;9.216;2023-03-23T00:44:15;6.70;;;2.88;;
32032;SDS011;31720;52.638;9.216;2023-03-23T00:47:17;6.82;;;2.70;;
32032;SDS011;31720;52.638;9.216;2023-03-23T00:50:18;8.65;;;3.13;;
32032;SDS011;31720;52.638;9.216;2023-03-23T00:53:19;5.40;;;2.67;;
32032;SDS011;31720;52.638;9.216;2023-03-23T00:56:22;6.30;;;2.78;;
32032;SDS011;31720;52.638;9.216;2023-03-23T00:59:23;4.85;;;2.78;;
32032;SDS011;31720;52.638;9.216;2023-03-23T01:02:25;3.22;;;2.20;;
32032;SDS011;31720;52.638;9.216;2023-03-23T01:05:26;3.47;;;2.10;;
32032;SDS011;31720;52.638;9.216;2023-03-23T01:08:31;6.45;;;2.67;;
32032;SDS011;31720;52.638;9.216;2023-03-23T01:11:34;3.88;;;2.17;;
32032;SDS011;31720;52.638;9.216;2023-03-23T01:14:35;5.95;;;2.90;;
32032;SDS011;31720;52.638;9.216;2023-03-23T01:17:37;4.90;;;2.53;;
32032;SDS011;31720;52.638;9.216;2023-03-23T01:20:38;4.05;;;2.45;;
32032;SDS011;31720;52.638;9.216;2023-03-23T01:23:42;5.97;;;2.60;;
32032;SDS011;31720;52.638;9.216;2023-03-23T01:26:45;3.72;;;2.63;;
32032;SDS011;31720;52.638;9.216;2023-03-23T01:29:46;4.50;;;2.28;;
32032;SDS011;31720;52.638;9.216;2023-03-23T01:32:48;11.10;;;2.72;;
32032;SDS011;31720;52.638;9.216;2023-03-23T01:35:49;6.68;;;2.40;;
32032;SDS011;31720;52.638;9.216;2023-03-23T01:38:50;5.47;;;2.70;;
32032;SDS011;31720;52.638;9.216;2023-03-23T01:41:53;10.98;;;3.00;;
32032;SDS011;31720;52.638;9.216;2023-03-23T01:48:29;4.93;;;2.65;;
32032;SDS011;31720;52.638;9.216;2023-03-23T01:51:34;4.97;;;2.72;;
32032;SDS011;31720;52.638;9.216;2023-03-23T01:54:38;3.70;;;2.70;;
32032;SDS011;31720;52.638;9.216;2023-03-23T01:57:46;4.85;;;2.60;;
32032;SDS011;31720;52.638;9.216;2023-03-23T02:00:48;8.82;;;3.38;;
32032;SDS011;31720;52.638;9.216;2023-03-23T02:03:50;3.65;;;2.22;;
32032;SDS011;31720;52.638;9.216;2023-03-23T02:06:53;4.13;;;2.38;;
32032;SDS011;31720;52.638;9.216;2023-03-23T02:09:56;6.55;;;2.95;;
32032;SDS011;31720;52.638;9.216;2023-03-23T02:12:59;6.03;;;3.03;;
32032;SDS011;31720;52.638;9.216;2023-03-23T02:16:03;5.60;;;2.85;;
32032;SDS011;31720;52.638;9.216;2023-03-23T02:19:17;4.35;;;2.95;;
32032;SDS011;31720;52.638;9.216;2023-03-23T02:22:38;6.63;;;3.25;;
32032;SDS011;31720;52.638;9.216;2023-03-23T02:25:53;4.53;;;2.80;;
32032;SDS011;31720;52.638;9.216;2023-03-23T02:29:09;9.30;;;3.33;;
32032;SDS011;31720;52.638;9.216;2023-03-23T02:36:03;6.13;;;2.65;;
32032;SDS011;31720;52.638;9.216;2023-03-23T02:39:12;3.42;;;2.55;;
32032;SDS011;31720;52.638;9.216;2023-03-23T02:42:19;3.58;;;2.42;;
32032;SDS011;31720;52.638;9.216;2023-03-23T02:45:24;5.10;;;2.83;;
32032;SDS011;31720;52.638;9.216;2023-03-23T02:48:29;2.72;;;2.30;;
32032;SDS011;31720;52.638;9.216;2023-03-23T02:51:33;4.95;;;2.85;;
32032;SDS011;31720;52.638;9.216;2023-03-23T02:54:36;5.97;;;3.10;;
32032;SDS011;31720;52.638;9.216;2023-03-23T02:57:38;3.95;;;2.40;;
32032;SDS011;31720;52.638;9.216;2023-03-23T03:00:40;4.25;;;2.90;;
32032;SDS011;31720;52.638;9.216;2023-03-23T03:03:41;5.72;;;2.92;;
32032;SDS011;31720;52.638;9.216;2023-03-23T03:06:47;3.78;;;2.53;;
32032;SDS011;31720;52.638;9.216;2023-03-23T03:09:56;4.93;;;2.70;;
32032;SDS011;31720;52.638;9.216;2023-03-23T03:13:03;10.40;;;2.20;;
32032;SDS011;31720;52.638;9.216;2023-03-23T03:16:14;5.28;;;2.40;;
32032;SDS011;31720;52.638;9.216;2023-03-23T03:19:24;4.35;;;2.53;;
32032;SDS011;31720;52.638;9.216;2023-03-23T03:22:29;2.20;;;2.00;;
32032;SDS011;31720;52.638;9.216;2023-03-23T03:25:30;5.60;;;2.30;;
32032;SDS011;31720;52.638;9.216;2023-03-23T03:28:32;5.10;;;2.50;;
32032;SDS011;31720;52.638;9.216;2023-03-23T03:31:36;5.22;;;2.05;;
32032;SDS011;31720;52.638;9.216;2023-03-23T03:34:40;8.98;;;3.08;;
32032;SDS011;31720;52.638;9.216;2023-03-23T03:37:44;4.93;;;2.72;;
32032;SDS011;31720;52.638;9.216;2023-03-23T03:40:46;4.18;;;2.00;;
32032;SDS011;31720;52.638;9.216;2023-03-23T03:43:47;4.55;;;1.90;;
32032;SDS011;31720;52.638;9.216;2023-03-23T03:46:48;6.28;;;2.72;;
32032;SDS011;31720;52.638;9.216;2023-03-23T03:49:50;3.80;;;2.00;;
32032;SDS011;31720;52.638;9.216;2023-03-23T03:52:53;7.40;;;2.25;;
32032;SDS011;31720;52.638;9.216;2023-03-23T03:55:54;2.95;;;1.70;;
32032;SDS011;31720;52.638;9.216;2023-03-23T03:58:59;3.78;;;2.47;;
32032;SDS011;31720;52.638;9.216;2023-03-23T04:02:01;3.78;;;2.05;;
32032;SDS011;31720;52.638;9.216;2023-03-23T04:05:04;5.25;;;1.90;;
32032;SDS011;31720;52.638;9.216;2023-03-23T04:08:07;4.03;;;2.03;;
32032;SDS011;31720;52.638;9.216;2023-03-23T04:11:08;1.70;;;1.23;;
32032;SDS011;31720;52.638;9.216;2023-03-23T04:14:12;3.05;;;1.48;;
32032;SDS011;31720;52.638;9.216;2023-03-23T04:17:13;2.90;;;1.50;;
32032;SDS011;31720;52.638;9.216;2023-03-23T04:20:16;3.03;;;1.25;;
32032;SDS011;31720;52.638;9.216;2023-03-23T04:23:20;2.88;;;1.65;;
32032;SDS011;31720;52.638;9.216;2023-03-23T04:26:22;5.75;;;1.63;;
32032;SDS011;31720;52.638;9.216;2023-03-23T04:29:23;1.58;;;1.15;;
32032;SDS011;31720;52.638;9.216;2023-03-23T04:32:25;1.30;;;1.10;;
32032;SDS011;31720;52.638;9.216;2023-03-23T04:35:29;2.63;;;1.10;;
32032;SDS011;31720;52.638;9.216;2023-03-23T04:38:32;2.83;;;1.35;;
32032;SDS011;31720;52.638;9.216;2023-03-23T04:41:34;2.33;;;1.10;;
32032;SDS011;31720;52.638;9.216;2023-03-23T04:44:35;2.55;;;1.35;;
32032;SDS011;31720;52.638;9.216;2023-03-23T04:47:37;2.35;;;1.20;;
32032;SDS011;31720;52.638;9.216;2023-03-23T04:50:40;2.30;;;1.13;;
32032;SDS011;31720;52.638;9.216;2023-03-23T04:53:43;1.38;;;0.90;;
32032;SDS011;31720;52.638;9.216;2023-03-23T04:56:44;1.30;;;1.13;;
32032;SDS011;31720;52.638;9.216;2023-03-23T04:59:45;1.00;;;0.90;;
32032;SDS011;31720;52.638;9.216;2023-03-23T05:02:47;2.17;;;1.00;;
32032;SDS011;31720;52.638;9.216;2023-03-23T05:05:51;1.73;;;1.15;;
32032;SDS011;31720;52.638;9.216;2023-03-23T05:08:54;2.05;;;1.00;;
32032;SDS011;31720;52.638;9.216;2023-03-23T05:11:56;0.80;;;0.80;;
32032;SDS011;31720;52.638;9.216;2023-03-23T05:14:59;0.98;;;0.88;;
32032;SDS011;31720;52.638;9.216;2023-03-23T05:18:01;1.50;;;0.90;;
32032;SDS011;31720;52.638;9.216;2023-03-23T05:21:03;2.20;;;1.13;;
32032;SDS011;31720;52.638;9.216;2023-03-23T05:24:06;1.90;;;0.98;;
32032;SDS011;31720;52.638;9.216;2023-03-23T05:27:08;2.00;;;1.00;;
32032;SDS011;31720;52.638;9.216;2023-03-23T05:30:10;2.08;;;1.10;;
32032;SDS011;31720;52.638;9.216;2023-03-23T05:33:11;2.35;;;1.10;;
32032;SDS011;31720;52.638;9.216;2023-03-23T05:36:13;1.17;;;1.05;;
32032;SDS011;31720;52.638;9.216;2023-03-23T05:39:16;1.60;;;0.93;;
32032;SDS011;31720;52.638;9.216;2023-03-23T05:42:17;2.72;;;1.15;;
32032;SDS011;31720;52.638;9.216;2023-03-23T05:45:18;1.67;;;0.95;;
32032;SDS011;31720;52.638;9.216;2023-03-23T05:48:20;4.20;;;1.23;;
32032;SDS011;31720;52.638;9.216;2023-03-23T05:51:21;3.83;;;1.08;;
32032;SDS011;31720;52.638;9.216;2023-03-23T05:54:24;1.27;;;0.82;;
32032;SDS011;31720;52.638;9.216;2023-03-23T05:57:25;2.08;;;1.27;;
32032;SDS011;31720;52.638;9.216;2023-03-23T06:00:27;3.55;;;1.17;;
32032;SDS011;31720;52.638;9.216;2023-03-23T06:03:30;3.22;;;0.80;;
32032;SDS011;31720;52.638;9.216;2023-03-23T06:06:31;2.15;;;1.65;;
32032;SDS011;31720;52.638;9.216;2023-03-23T06:09:34;1.48;;;1.00;;
32032;SDS011;31720;52.638;9.216;2023-03-23T06:12:36;1.17;;;0.80;;
32032;SDS011;31720;52.638;9.216;2023-03-23T06:15:38;2.00;;;0.80;;
32032;SDS011;31720;52.638;9.216;2023-03-23T06:18:39;3.17;;;1.30;;
32032;SDS011;31720;52.638;9.216;2023-03-23T06:21:42;2.55;;;1.10;;
32032;SDS011;31720;52.638;9.216;2023-03-23T06:24:45;1.35;;;1.02;;
32032;SDS011;31720;52.638;9.216;2023-03-23T06:27:47;2.17;;;1.35;;
32032;SDS011;31720;52.638;9.216;2023-03-23T06:30:48;1.33;;;0.90;;
32032;SDS011;31720;52.638;9.216;2023-03-23T06:33:49;2.40;;;1.30;;
32032;SDS011;31720;52.638;9.216;2023-03-23T06:36:51;2.17;;;1.02;;
32032;SDS011;31720;52.638;9.216;2023-03-23T06:39:54;0.98;;;0.88;;
32032;SDS011;31720;52.638;9.216;2023-03-23T06:42:56;2.47;;;1.13;;
32032;SDS011;31720;52.638;9.216;2023-03-23T06:45:58;1.88;;;1.02;;
32032;SDS011;31720;52.638;9.216;2023-03-23T06:49:00;3.45;;;1.30;;
32032;SDS011;31720;52.638;9.216;2023-03-23T06:52:01;1.90;;;0.98;;
32032;SDS011;31720;52.638;9.216;2023-03-23T06:55:05;2.08;;;1.30;;
32032;SDS011;31720;52.638;9.216;2023-03-23T06:58:07;1.45;;;1.20;;
32032;SDS011;31720;52.638;9.216;2023-03-23T07:01:09;4.32;;;1.48;;
32032;SDS011;31720;52.638;9.216;2023-03-23T07:04:10;1.17;;;1.08;;
32032;SDS011;31720;52.638;9.216;2023-03-23T07:07:12;2.05;;;1.17;;
32032;SDS011;31720;52.638;9.216;2023-03-23T07:10:15;2.72;;;1.40;;
32032;SDS011;31720;52.638;9.216;2023-03-23T07:13:17;1.63;;;1.08;;
32032;SDS011;31720;52.638;9.216;2023-03-23T07:16:18;1.90;;;1.35;;
32032;SDS011;31720;52.638;9.216;2023-03-23T07:19:19;1.55;;;1.20;;
32032;SDS011;31720;52.638;9.216;2023-03-23T07:22:21;1.63;;;1.30;;
32032;SDS011;31720;52.638;9.216;2023-03-23T07:25:24;2.05;;;1.40;;
32032;SDS011;31720;52.638;9.216;2023-03-23T07:28:25;2.53;;;1.35;;
32032;SDS011;31720;52.638;9.216;2023-03-23T07:31:27;3.13;;;1.35;;
32032;SDS011;31720;52.638;9.216;2023-03-23T07:34:28;3.60;;;1.55;;
32032;SDS011;31720;52.638;9.216;2023-03-23T07:37:29;2.38;;;1.50;;
32032;SDS011;31720;52.638;9.216;2023-03-23T07:40:33;2.10;;;1.40;;
32032;SDS011;31720;52.638;9.216;2023-03-23T07:43:35;1.73;;;1.33;;
32032;SDS011;31720;52.638;9.216;2023-03-23T07:46:36;1.63;;;1.27;;
32032;SDS011;31720;52.638;9.216;2023-03-23T07:49:38;4.60;;;1.30;;
32032;SDS011;31720;52.638;9.216;2023-03-23T07:52:40;1.33;;;1.23;;
32032;SDS011;31720;52.638;9.216;2023-03-23T07:55:43;2.35;;;1.25;;
32032;SDS011;31720;52.638;9.216;2023-03-23T07:58:44;3.10;;;1.65;;
32032;SDS011;31720;52.638;9.216;2023-03-23T08:01:46;3.97;;;1.80;;
32032;SDS011;31720;52.638;9.216;2023-03-23T08:04:47;2.92;;;1.58;;
32032;SDS011;31720;52.638;9.216;2023-03-23T08:07:49;5.80;;;1.27;;
32032;SDS011;31720;52.638;9.216;2023-03-23T08:10:53;3.00;;;1.52;;
32032;SDS011;31720;52.638;9.216;2023-03-23T08:13:54;3.42;;;1.65;;
32032;SDS011;31720;52.638;9.216;2023-03-23T08:16:56;9.00;;;1.67;;
32032;SDS011;31720;52.638;9.216;2023-03-23T08:19:58;3.38;;;1.67;;
32032;SDS011;31720;52.638;9.216;2023-03-23T08:23:00;3.08;;;1.45;;
32032;SDS011;31720;52.638;9.216;2023-03-23T08:26:04;2.28;;;1.52;;
32032;SDS011;31720;52.638;9.216;2023-03-23T08:29:07;3.70;;;1.67;;
32032;SDS011;31720;52.638;9.216;2023-03-23T08:32:09;6.78;;;1.75;;
32032;SDS011;31720;52.638;9.216;2023-03-23T08:35:11;4.47;;;1.90;;
32032;SDS011;31720;52.638;9.216;2023-03-23T08:38:13;4.75;;;2.05;;
32032;SDS011;31720;52.638;9.216;2023-03-23T08:41:16;4.05;;;1.58;;
32032;SDS011;31720;52.638;9.216;2023-03-23T08:44:18;4.78;;;2.08;;
32032;SDS011;31720;52.638;9.216;2023-03-23T08:47:19;2.47;;;1.52;;
32032;SDS011;31720;52.638;9.216;2023-03-23T08:50:21;3.33;;;1.30;;
32032;SDS011;31720;52.638;9.216;2023-03-23T08:53:25;1.73;;;1.48;;
32032;SDS011;31720;52.638;9.216;2023-03-23T08:56:31;1.60;;;1.30;;
32032;SDS011;31720;52.638;9.216;2023-03-23T08:59:32;1.75;;;1.30;;
32032;SDS011;31720;52.638;9.216;2023-03-23T09:02:34;2.63;;;1.60;;
32032;SDS011;31720;52.638;9.216;2023-03-23T09:05:35;8.25;;;1.33;;
32032;SDS011;31720;52.638;9.216;2023-03-23T09:08:39;3.17;;;1.30;;
32032;SDS011;31720;52.638;9.216;2023-03-23T09:11:41;3.85;;;1.30;;
32032;SDS011;31720;52.638;9.216;2023-03-23T09:14:43;3.17;;;1.60;;
32032;SDS011;31720;52.638;9.216;2023-03-23T09:17:45;3.58;;;1.38;;
32032;SDS011;31720;52.638;9.216;2023-03-23T09:20:49;1.58;;;1.25;;
32032;SDS011;31720;52.638;9.216;2023-03-23T09:23:51;4.63;;;1.42;;
32032;SDS011;31720;52.638;9.216;2023-03-23T09:26:54;4.35;;;1.50;;
32032;SDS011;31720;52.638;9.216;2023-03-23T09:29:55;3.22;;;2.10;;
32032;SDS011;31720;52.638;9.216;2023-03-23T09:32:57;3.25;;;1.90;;
32032;SDS011;31720;52.638;9.216;2023-03-23T09:36:00;3.88;;;1.80;;
32032;SDS011;31720;52.638;9.216;2023-03-23T09:39:04;2.72;;;1.60;;
32032;SDS011;31720;52.638;9.216;2023-03-23T09:42:18;2.13;;;1.27;;
32032;SDS011;31720;52.638;9.216;2023-03-23T09:45:30;1.35;;;1.23;;
32032;SDS011;31720;52.638;9.216;2023-03-23T09:48:41;6.00;;;1.55;;
32032;SDS011;31720;52.638;9.216;2023-03-23T09:51:50;4.45;;;0.90;;
32032;SDS011;31720;52.638;9.216;2023-03-23T09:54:53;1.15;;;0.60;;
32032;SDS011;31720;52.638;9.216;2023-03-23T09:57:58;3.45;;;0.50;;
32032;SDS011;31720;52.638;9.216;2023-03-23T10:01:04;2.10;;;0.70;;
32032;SDS011;31720;52.638;9.216;2023-03-23T10:04:10;3.60;;;0.88;;
32032;SDS011;31720;52.638;9.216;2023-03-23T10:07:17;1.75;;;0.77;;
32032;SDS011;31720;52.638;9.216;2023-03-23T10:10:21;2.70;;;0.70;;
32032;SDS011;31720;52.638;9.216;2023-03-23T10:13:43;1.08;;;0.90;;
32032;SDS011;31720;52.638;9.216;2023-03-23T10:16:56;2.38;;;1.83;;
32032;SDS011;31720;52.638;9.216;2023-03-23T10:20:05;2.72;;;0.60;;
32032;SDS011;31720;52.638;9.216;2023-03-23T10:26:58;1.15;;;0.63;;
32032;SDS011;31720;52.638;9.216;2023-03-23T10:30:13;1.95;;;0.55;;
32032;SDS011;31720;52.638;9.216;2023-03-23T10:33:20;2.20;;;0.70;;
32032;SDS011;31720;52.638;9.216;2023-03-23T10:36:31;0.45;;;0.30;;
32032;SDS011;31720;52.638;9.216;2023-03-23T10:39:38;4.05;;;0.70;;
32032;SDS011;31720;52.638;9.216;2023-03-23T10:42:47;0.90;;;0.40;;
32032;SDS011;31720;52.638;9.216;2023-03-23T10:45:52;3.25;;;0.70;;
32032;SDS011;31720;52.638;9.216;2023-03-23T10:52:01;1.20;;;0.55;;
32032;SDS011;31720;52.638;9.216;2023-03-23T10:55:07;2.20;;;0.82;;
32032;SDS011;31720;52.638;9.216;2023-03-23T10:58:11;3.00;;;1.13;;
32032;SDS011;31720;52.638;9.216;2023-03-23T11:01:15;3.20;;;0.75;;
32032;SDS011;31720;52.638;9.216;2023-03-23T11:04:19;2.33;;;0.70;;
32032;SDS011;31720;52.638;9.216;2023-03-23T11:07:24;1.25;;;0.90;;
32032;SDS011;31720;52.638;9.216;2023-03-23T11:10:33;2.00;;;0.85;;
32032;SDS011;31720;52.638;9.216;2023-03-23T11:13:39;3.45;;;1.25;;
32032;SDS011;31720;52.638;9.216;2023-03-23T11:16:45;5.35;;;1.60;;
32032;SDS011;31720;52.638;9.216;2023-03-23T11:19:51;1.85;;;0.88;;
32032;SDS011;31720;52.638;9.216;2023-03-23T11:22:54;2.80;;;1.20;;
32032;SDS011;31720;52.638;9.216;2023-03-23T11:25:57;1.00;;;0.90;;
32032;SDS011;31720;52.638;9.216;2023-03-23T11:29:03;3.05;;;0.88;;
32032;SDS011;31720;52.638;9.216;2023-03-23T11:32:10;1.27;;;1.10;;
32032;SDS011;31720;52.638;9.216;2023-03-23T11:35:15;2.05;;;1.00;;
32032;SDS011;31720;52.638;9.216;2023-03-23T11:38:19;1.65;;;0.90;;
32032;SDS011;31720;52.638;9.216;2023-03-23T11:41:31;1.90;;;1.05;;
32032;SDS011;31720;52.638;9.216;2023-03-23T11:44:35;2.15;;;0.70;;
32032;SDS011;31720;52.638;9.216;2023-03-23T11:47:43;1.60;;;0.90;;
32032;SDS011;31720;52.638;9.216;2023-03-23T11:50:54;1.13;;;0.80;;
32032;SDS011;31720;52.638;9.216;2023-03-23T11:53:59;0.90;;;0.60;;
32032;SDS011;31720;52.638;9.216;2023-03-23T11:57:06;0.57;;;0.55;;
32032;SDS011;31720;52.638;9.216;2023-03-23T12:00:12;1.45;;;0.60;;
32032;SDS011;31720;52.638;9.216;2023-03-23T12:03:19;1.10;;;0.75;;
32032;SDS011;31720;52.638;9.216;2023-03-23T12:06:24;0.50;;;0.50;;
32032;SDS011;31720;52.638;9.216;2023-03-23T12:09:37;1.10;;;0.70;;
32032;SDS011;31720;52.638;9.216;2023-03-23T12:12:44;2.75;;;0.60;;
32032;SDS011;31720;52.638;9.216;2023-03-23T12:15:52;0.60;;;0.45;;
32032;SDS011;31720;52.638;9.216;2023-03-23T12:19:03;2.60;;;1.75;;
32032;SDS011;31720;52.638;9.216;2023-03-23T12:22:16;1.33;;;0.68;;
32032;SDS011;31720;52.638;9.216;2023-03-23T12:29:07;0.80;;;0.68;;
32032;SDS011;31720;52.638;9.216;2023-03-23T12:32:29;1.23;;;0.70;;
32032;SDS011;31720;52.638;9.216;2023-03-23T12:35:46;3.35;;;0.75;;
32032;SDS011;31720;52.638;9.216;2023-03-23T12:39:06;1.15;;;0.80;;
32032;SDS011;31720;52.638;9.216;2023-03-23T12:42:16;1.42;;;1.05;;
32032;SDS011;31720;52.638;9.216;2023-03-23T12:45:25;0.93;;;0.68;;
32032;SDS011;31720;52.638;9.216;2023-03-23T12:48:45;1.23;;;0.80;;
32032;SDS011;31720;52.638;9.216;2023-03-23T12:51:55;3.33;;;1.27;;
32032;SDS011;31720;52.638;9.216;2023-03-23T12:55:00;1.33;;;1.02;;
32032;SDS011;31720;52.638;9.216;2023-03-23T12:58:05;5.45;;;1.00;;
32032;SDS011;31720;52.638;9.216;2023-03-23T13:01:10;2.80;;;1.25;;
32032;SDS011;31720;52.638;9.216;2023-03-23T13:04:18;2.17;;;0.82;;
32032;SDS011;31720;52.638;9.216;2023-03-23T13:07:25;0.95;;;0.70;;
32032;SDS011;31720;52.638;9.216;2023-03-23T13:10:29;1.20;;;0.60;;
32032;SDS011;31720;52.638;9.216;2023-03-23T13:13:41;2.67;;;0.77;;
32032;SDS011;31720;52.638;9.216;2023-03-23T13:16:47;1.42;;;0.68;;
32032;SDS011;31720;52.638;9.216;2023-03-23T13:20:11;0.50;;;0.43;;
32032;SDS011;31720;52.638;9.216;2023-03-23T13:23:24;1.08;;;0.40;;
32032;SDS011;31720;52.638;9.216;2023-03-23T13:26:29;0.80;;;0.30;;
32032;SDS011;31720;52.638;9.216;2023-03-23T13:29:31;1.15;;;0.30;;
32032;SDS011;31720;52.638;9.216;2023-03-23T13:32:34;1.63;;;0.55;;
32032;SDS011;31720;52.638;9.216;2023-03-23T13:35:38;0.55;;;0.30;;
32032;SDS011;31720;52.638;9.216;2023-03-23T13:38:46;0.45;;;0.40;;
32032;SDS011;31720;52.638;9.216;2023-03-23T13:41:58;1.00;;;0.32;;
32032;SDS011;31720;52.638;9.216;2023-03-23T13:45:06;0.20;;;0.20;;
32032;SDS011;31720;52.638;9.216;2023-03-23T13:48:20;2.05;;;1.40;;
32032;SDS011;31720;52.638;9.216;2023-03-23T13:51:24;1.23;;;0.73;;
32032;SDS011;31720;52.638;9.216;2023-03-23T13:54:40;1.55;;;0.75;;
32032;SDS011;31720;52.638;9.216;2023-03-23T13:57:49;0.60;;;0.60;;
32032;SDS011;31720;52.638;9.216;2023-03-23T14:01:10;1.17;;;0.63;;
32032;SDS011;31720;52.638;9.216;2023-03-23T14:04:16;0.55;;;0.50;;
32032;SDS011;31720;52.638;9.216;2023-03-23T14:07:19;1.33;;;0.43;;
32032;SDS011;31720;52.638;9.216;2023-03-23T14:10:22;1.95;;;0.50;;
32032;SDS011;31720;52.638;9.216;2023-03-23T14:13:25;1.65;;;0.32;;
32032;SDS011;31720;52.638;9.216;2023-03-23T14:16:32;0.90;;;0.30;;
32032;SDS011;31720;52.638;9.216;2023-03-23T14:19:39;3.70;;;0.35;;
32032;SDS011;31720;52.638;9.216;2023-03-23T14:22:42;2.08;;;0.40;;
32032;SDS011;31720;52.638;9.216;2023-03-23T14:25:45;3.03;;;0.38;;
32032;SDS011;31720;52.638;9.216;2023-03-23T14:28:56;1.50;;;0.50;;
32032;SDS011;31720;52.638;9.216;2023-03-23T14:31:57;0.82;;;0.40;;
32032;SDS011;31720;52.638;9.216;2023-03-23T14:35:01;3.33;;;1.15;;
32032;SDS011;31720;52.638;9.216;2023-03-23T14:38:08;0.22;;;0.22;;
32032;SDS011;31720;52.638;9.216;2023-03-23T14:41:17;0.77;;;0.45;;
32032;SDS011;31720;52.638;9.216;2023-03-23T14:44:21;1.58;;;0.60;;
32032;SDS011;31720;52.638;9.216;2023-03-23T14:47:27;1.75;;;0.70;;
32032;SDS011;31720;52.638;9.216;2023-03-23T14:50:38;2.58;;;0.70;;
32032;SDS011;31720;52.638;9.216;2023-03-23T14:53:40;2.05;;;0.57;;
32032;SDS011;31720;52.638;9.216;2023-03-23T14:56:43;1.85;;;0.50;;
32032;SDS011;31720;52.638;9.216;2023-03-23T14:59:45;0.88;;;0.38;;
32032;SDS011;31720;52.638;9.216;2023-03-23T15:02:49;1.15;;;0.80;;
32032;SDS011;31720;52.638;9.216;2023-03-23T15:05:55;1.30;;;0.75;;
32032;SDS011;31720;52.638;9.216;2023-03-23T15:08:59;1.33;;;0.75;;
32032;SDS011;31720;52.638;9.216;2023-03-23T15:12:04;2.22;;;0.50;;
32032;SDS011;31720;52.638;9.216;2023-03-23T15:15:07;3.00;;;0.60;;
32032;SDS011;31720;52.638;9.216;2023-03-23T15:18:26;2.58;;;0.60;;
32032;SDS011;31720;52.638;9.216;2023-03-23T15:21:32;2.65;;;0.70;;
32032;SDS011;31720;52.638;9.216;2023-03-23T15:24:37;0.80;;;0.60;;
32032;SDS011;31720;52.638;9.216;2023-03-23T15:27:41;1.63;;;0.60;;
32032;SDS011;31720;52.638;9.216;2023-03-23T15:30:47;1.25;;;0.70;;
32032;SDS011;31720;52.638;9.216;2023-03-23T15:33:54;0.73;;;0.73;;
32032;SDS011;31720;52.638;9.216;2023-03-23T15:37:06;0.93;;;0.70;;
32032;SDS011;31720;52.638;9.216;2023-03-23T15:40:19;1.25;;;0.75;;
32032;SDS011;31720;52.638;9.216;2023-03-23T15:43:24;0.80;;;0.80;;
32032;SDS011;31720;52.638;9.216;2023-03-23T15:46:27;4.22;;;1.67;;
32032;SDS011;31720;52.638;9.216;2023-03-23T15:49:29;0.93;;;0.90;;
32032;SDS011;31720;52.638;9.216;2023-03-23T15:52:31;2.05;;;0.90;;
32032;SDS011;31720;52.638;9.216;2023-03-23T15:55:35;1.48;;;0.90;;
32032;SDS011;31720;52.638;9.216;2023-03-23T15:58:39;4.18;;;1.23;;
32032;SDS011;31720;52.638;9.216;2023-03-23T16:01:41;3.45;;;1.30;;
32032;SDS011;31720;52.638;9.216;2023-03-23T16:04:43;8.35;;;1.10;;
32032;SDS011;31720;52.638;9.216;2023-03-23T16:07:45;3.78;;;1.20;;
32032;SDS011;31720;52.638;9.216;2023-03-23T16:10:46;2.35;;;1.20;;
32032;SDS011;31720;52.638;9.216;2023-03-23T16:13:49;2.08;;;1.17;;
32032;SDS011;31720;52.638;9.216;2023-03-23T16:16:50;1.60;;;1.40;;
32032;SDS011;31720;52.638;9.216;2023-03-23T16:19:52;1.25;;;1.15;;
32032;SDS011;31720;52.638;9.216;2023-03-23T16:22:54;6.35;;;1.80;;
32032;SDS011;31720;52.638;9.216;2023-03-23T16:25:55;1.83;;;1.50;;
32032;SDS011;31720;52.638;9.216;2023-03-23T16:28:58;1.67;;;1.40;;
32032;SDS011;31720;52.638;9.216;2023-03-23T16:31:59;2.70;;;1.60;;
32032;SDS011;31720;52.638;9.216;2023-03-23T16:35:01;1.60;;;1.33;;
32032;SDS011;31720;52.638;9.216;2023-03-23T16:38:02;2.33;;;1.50;;
32032;SDS011;31720;52.638;9.216;2023-03-23T16:41:05;0.95;;;0.90;;
32032;SDS011;31720;52.638;9.216;2023-03-23T16:44:08;3.53;;;1.77;;
32032;SDS011;31720;52.638;9.216;2023-03-23T16:47:09;3.75;;;2.08;;
32032;SDS011;31720;52.638;9.216;2023-03-23T16:50:11;3.58;;;1.48;;
32032;SDS011;31720;52.638;9.216;2023-03-23T16:53:14;3.25;;;1.42;;
32032;SDS011;31720;52.638;9.216;2023-03-23T16:56:15;0.93;;;0.90;;
32032;SDS011;31720;52.638;9.216;2023-03-23T16:59:18;1.30;;;0.55;;
32032;SDS011;31720;52.638;9.216;2023-03-23T17:02:20;0.40;;;0.40;;
32032;SDS011;31720;52.638;9.216;2023-03-23T17:05:22;2.70;;;0.60;;
32032;SDS011;31720;52.638;9.216;2023-03-23T17:08:24;1.88;;;1.00;;
32032;SDS011;31720;52.638;9.216;2023-03-23T17:11:26;0.88;;;0.77;;
32032;SDS011;31720;52.638;9.216;2023-03-23T17:14:28;2.22;;;0.60;;
32032;SDS011;31720;52.638;9.216;2023-03-23T17:17:30;1.00;;;0.73;;
32032;SDS011;31720;52.638;9.216;2023-03-23T17:20:32;1.65;;;0.95;;
32032;SDS011;31720;52.638;9.216;2023-03-23T17:23:34;2.45;;;1.00;;
32032;SDS011;31720;52.638;9.216;2023-03-23T17:26:35;2.45;;;0.95;;
32032;SDS011;31720;52.638;9.216;2023-03-23T17:29:38;2.20;;;1.05;;
32032;SDS011;31720;52.638;9.216;2023-03-23T17:32:39;2.10;;;1.23;;
32032;SDS011;31720;52.638;9.216;2023-03-23T17:35:41;3.55;;;1.52;;
32032;SDS011;31720;52.638;9.216;2023-03-23T17:38:43;2.97;;;1.98;;
32032;SDS011;31720;52.638;9.216;2023-03-23T17:41:44;2.47;;;1.33;;
32032;SDS011;31720;52.638;9.216;2023-03-23T17:44:47;3.38;;;1.65;;
32032;SDS011;31720;52.638;9.216;2023-03-23T17:47:48;2.85;;;1.65;;
32032;SDS011;31720;52.638;9.216;2023-03-23T17:50:52;4.63;;;2.17;;
32032;SDS011;31720;52.638;9.216;2023-03-23T17:53:56;4.38;;;2.60;;
32032;SDS011;31720;52.638;9.216;2023-03-23T17:56:57;5.93;;;2.95;;
32032;SDS011;31720;52.638;9.216;2023-03-23T18:00:05;5.55;;;3.20;;
32032;SDS011;31720;52.638;9.216;2023-03-23T18:03:08;7.93;;;3.58;;
32032;SDS011;31720;52.638;9.216;2023-03-23T18:06:09;5.63;;;3.35;;
32032;SDS011;31720;52.638;9.216;2023-03-23T18:09:10;5.18;;;3.25;;
32032;SDS011;31720;52.638;9.216;2023-03-23T18:12:12;6.65;;;3.67;;
32032;SDS011;31720;52.638;9.216;2023-03-23T18:15:15;5.65;;;3.90;;
32032;SDS011;31720;52.638;9.216;2023-03-23T18:18:16;3.55;;;3.08;;
32032;SDS011;31720;52.638;9.216;2023-03-23T18:21:17;6.10;;;3.13;;
32032;SDS011;31720;52.638;9.216;2023-03-23T18:24:19;2.88;;;2.45;;
32032;SDS011;31720;52.638;9.216;2023-03-23T18:27:20;4.25;;;2.58;;
32032;SDS011;31720;52.638;9.216;2023-03-23T18:30:23;3.97;;;2.95;;
32032;SDS011;31720;52.638;9.216;2023-03-23T18:33:25;4.68;;;3.15;;
32032;SDS011;31720;52.638;9.216;2023-03-23T18:36:27;5.93;;;3.42;;
32032;SDS011;31720;52.638;9.216;2023-03-23T18:39:30;4.50;;;2.97;;
32032;SDS011;31720;52.638;9.216;2023-03-23T18:42:32;6.15;;;2.75;;
32032;SDS011;31720;52.638;9.216;2023-03-23T18:45:35;3.00;;;2.35;;
32032;SDS011;31720;52.638;9.216;2023-03-23T18:48:37;5.20;;;2.85;;